Airfield :
LOGIN :

Register | Disclaimer

   EN    FR    IT 

 










Legend :    VFR   Marginal VFR   IFR   Intensive IFR   Very Intensive IFR
Visi :
Ceiling :
>= 8 km
>= 3000ft
5 to 8 km
1000 to 3000 ft
1500m to 5 km
500 to 1000 ft
800 to 1500m
200 to 500 ft
< 800m
< 200 ft
Symbols :   Thunderstorms  Fog  Heavy snow  Heavy precipitations  Wind > 20 kt
SIGMETs :     Misc.  Thunderstorms  Icing  Turbulence  Mountain Waves  Volcanic Ashes







- Airport Elevation : 587 ft
- IATA code : XCR
- Download approach charts


LFOK - Chalons Vatry

CURRENT METAR :
  • 190830Z AUTO 03010KT CAVOK 00/M02 Q1014 TEMPO 04017G27KT BKN013

EXPIRED METARs :
  • 190800Z AUTO 04011KT CAVOK M01/M03 Q1015 TEMPO BKN013
  • 190730Z AUTO 04013KT CAVOK M01/M04 Q1015 TEMPO BKN013
  • 190700Z AUTO 04013KT CAVOK M02/M05 Q1015 TEMPO BKN013
  • 190630Z AUTO 04012KT CAVOK M02/M06 Q1015 TEMPO BKN013
  • 190600Z AUTO 05013KT CAVOK M02/M07 Q1015 NOSIG

TAF TAF LFOK
Valid from the 19 at 06:00 until the 20 at 06:00 UTC


190500Z 1906/2006 04012KT CAVOK
TEMPO 1908/1910 BKN013
TEMPO 1910/1918 04017G27KT
TEMPO 1918/1921 4000 SHRA BKN013 BKN020TCU
PROB40 1921/2006 1200 SN OVC003
No reported NOTAMs for that airfield.



MET'MAP, your aeronautical weather chart ! - Copyright ORBIFLY December 2007 - Disclaimer

ORBIFLY MET'MAP TEAM :

Programming & Development : Alexandra Zaïnal
Concept & Development : Baudouin d'Aumeries
Co-Development & Prog : Marc-Olivier Méhu
Technical & hardware support : Manuel Goepfert

Contact : metmap@orbifly.com




SOURCES & CREDITS :

   NOAA